Time;durP1;ratioP1;P1;durP2;ratioP2;P2;SDS_P1;SDS_P2;PMS_P1;PMS_P2;Temp;Humidity;BMP_temperature;BMP_pressure;BME280_temperature;BME280_humidity;BME280_pressure;Samples;Min_cycle;Max_cycle;Signal;HPM_P1;HPM_P2
2023/06/02 00:00:53;;;;;;;11.25;3.47;;;11.00;99.90;;;;;;12426214;28;20121;-37
2023/06/02 00:07:00;;;;;;;12.40;3.47;;;11.00;99.90;;;;;;12433267;28;20046;-37
2023/06/02 00:13:02;;;;;;;15.18;3.67;;;11.00;99.90;;;;;;12408642;28;20050;-37
2023/06/02 00:19:04;;;;;;;16.45;3.97;;;11.00;99.90;;;;;;12410140;28;20053;-37
2023/06/02 00:25:07;;;;;;;12.82;3.60;;;10.90;99.90;;;;;;12421390;28;20054;-38
2023/06/02 00:31:10;;;;;;;12.82;3.10;;;10.60;99.90;;;;;;12427770;28;20046;-37
2023/06/02 00:37:12;;;;;;;10.00;3.00;;;10.60;99.90;;;;;;12422381;28;20089;-37
2023/06/02 00:43:15;;;;;;;11.90;3.13;;;10.70;99.90;;;;;;12421642;28;20173;-37
2023/06/02 00:49:17;;;;;;;11.50;3.00;;;10.80;99.90;;;;;;12410983;28;20073;-37
2023/06/02 00:55:19;;;;;;;9.85;3.22;;;10.80;99.90;;;;;;12437157;28;20469;-37
2023/06/02 01:01:21;;;;;;;12.90;2.97;;;10.90;99.90;;;;;;12423191;28;20117;-37
2023/06/02 01:07:25;;;;;;;15.50;3.30;;;10.90;99.90;;;;;;12424598;28;20056;-37
2023/06/02 01:13:27;;;;;;;22.27;3.57;;;10.40;99.90;;;;;;12423914;28;20045;-37
2023/06/02 01:19:31;;;;;;;7.78;2.55;;;10.50;99.90;;;;;;12408159;28;20296;-36
2023/06/02 01:25:36;;;;;;;10.00;3.08;;;10.50;99.90;;;;;;12418893;28;20042;-37
2023/06/02 01:31:48;;;;;;;18.08;3.60;;;10.60;99.90;;;;;;12432773;28;20173;-37
2023/06/02 01:37:56;;;;;;;12.45;3.33;;;10.60;99.90;;;;;;12423169;28;20557;-37
2023/06/02 01:44:00;;;;;;;9.60;3.08;;;10.60;99.90;;;;;;12420574;28;20493;-37
2023/06/02 01:50:03;;;;;;;12.43;3.67;;;10.70;99.90;;;;;;12438225;28;20045;-37
2023/06/02 01:56:05;;;;;;;12.35;3.63;;;10.70;99.90;;;;;;12427663;28;20054;-37
2023/06/02 02:02:07;;;;;;;12.35;3.78;;;10.70;99.90;;;;;;12428500;28;20490;-37
2023/06/02 02:08:12;;;;;;;15.02;4.03;;;10.50;99.90;;;;;;12422344;28;20517;-37
2023/06/02 02:14:14;;;;;;;9.18;3.80;;;10.60;99.90;;;;;;12432341;28;20659;-37
2023/06/02 02:20:18;;;;;;;13.02;4.40;;;10.70;99.90;;;;;;12428365;28;20053;-37
2023/06/02 02:26:19;;;;;;;18.17;3.60;;;10.40;99.90;;;;;;12431329;28;20045;-37
2023/06/02 02:32:22;;;;;;;16.95;4.10;;;10.40;99.90;;;;;;12428757;28;20049;-37
2023/06/02 02:38:24;;;;;;;12.55;3.63;;;10.40;99.90;;;;;;12441656;28;20058;-37
2023/06/02 02:44:26;;;;;;;12.25;3.25;;;10.30;99.90;;;;;;12424911;28;20529;-37
2023/06/02 02:50:28;;;;;;;12.27;3.45;;;10.50;99.90;;;;;;12432588;28;20052;-35
2023/06/02 02:56:30;;;;;;;10.30;3.53;;;10.40;99.90;;;;;;12440116;28;20125;-36
2023/06/02 03:02:32;;;;;;;14.32;3.53;;;10.40;99.90;;;;;;12436321;28;20050;-36
2023/06/02 03:08:36;;;;;;;14.65;3.97;;;10.20;99.90;;;;;;12435654;28;20084;-35
2023/06/02 03:14:38;;;;;;;19.77;4.63;;;10.20;99.90;;;;;;12425760;28;20053;-36
2023/06/02 03:20:41;;;;;;;9.50;3.78;;;10.40;99.90;;;;;;12410731;28;20162;-36
2023/06/02 03:26:44;;;;;;;13.15;4.13;;;10.30;99.90;;;;;;12437847;28;20046;-36
2023/06/02 03:32:46;;;;;;;11.63;5.07;;;10.40;99.90;;;;;;12435968;28;20046;-36
2023/06/02 03:38:48;;;;;;;10.23;3.33;;;10.70;99.90;;;;;;12430029;28;20060;-35
2023/06/02 03:44:55;;;;;;;11.85;4.07;;;10.60;99.90;;;;;;12425796;28;20131;-36
2023/06/02 03:50:58;;;;;;;11.98;3.88;;;10.60;99.90;;;;;;12436336;28;20054;-36
2023/06/02 03:57:00;;;;;;;8.88;3.45;;;10.60;99.90;;;;;;12429581;28;20042;-36
2023/06/02 04:03:02;;;;;;;13.68;3.53;;;10.70;99.90;;;;;;12434265;28;20510;-36
2023/06/02 04:09:04;;;;;;;12.05;3.75;;;10.50;99.90;;;;;;12454603;28;20053;-36
2023/06/02 04:15:07;;;;;;;10.38;3.10;;;10.50;99.90;;;;;;12433512;28;20046;-35
2023/06/02 04:21:09;;;;;;;15.38;3.20;;;10.30;99.90;;;;;;12422547;28;20060;-36
2023/06/02 04:27:11;;;;;;;15.18;3.17;;;10.50;99.90;;;;;;12434833;28;20064;-35
2023/06/02 04:33:13;;;;;;;13.05;3.30;;;10.50;99.90;;;;;;12427720;28;20046;-36
2023/06/02 04:39:15;;;;;;;13.13;3.08;;;10.50;99.90;;;;;;12422824;28;20057;-36
2023/06/02 04:45:20;;;;;;;14.45;3.45;;;10.60;99.90;;;;;;12430199;28;20050;-36
2023/06/02 04:51:29;;;;;;;9.70;3.00;;;10.60;99.90;;;;;;12432196;28;20091;-36
2023/06/02 04:57:31;;;;;;;11.57;2.78;;;10.70;99.90;;;;;;12416351;28;20045;-35
2023/06/02 05:03:33;;;;;;;13.80;3.45;;;10.70;99.90;;;;;;12424196;28;21017;-35
2023/06/02 05:09:35;;;;;;;9.27;2.97;;;10.70;99.90;;;;;;12422638;28;20045;-36
2023/06/02 05:15:38;;;;;;;15.70;3.42;;;10.70;99.90;;;;;;12407213;28;20042;-35
2023/06/02 05:21:40;;;;;;;12.20;2.90;;;10.60;99.90;;;;;;12421663;28;20490;-36
2023/06/02 05:27:42;;;;;;;9.00;2.35;;;10.80;99.90;;;;;;12415227;28;21214;-36
2023/06/02 05:33:43;;;;;;;8.82;2.97;;;10.80;99.90;;;;;;12430643;28;20073;-37
2023/06/02 05:39:45;;;;;;;9.65;2.55;;;10.70;99.90;;;;;;12421340;28;20045;-38
2023/06/02 05:45:47;;;;;;;11.98;2.65;;;10.50;99.90;;;;;;12427630;28;20072;-39
2023/06/02 05:51:49;;;;;;;16.80;3.15;;;10.60;99.90;;;;;;12417101;28;21487;-37
2023/06/02 05:57:52;;;;;;;13.18;2.67;;;10.30;99.90;;;;;;12406549;28;20084;-37
2023/06/02 06:03:54;;;;;;;13.75;3.78;;;10.80;99.90;;;;;;12430056;28;20141;-37
2023/06/02 06:09:56;;;;;;;10.32;2.55;;;10.60;99.90;;;;;;12427683;28;20061;-37
2023/06/02 06:15:58;;;;;;;10.32;2.55;;;10.80;99.90;;;;;;12426699;28;20073;-37
2023/06/02 06:22:00;;;;;;;11.13;3.15;;;11.00;99.90;;;;;;12434817;28;20034;-37
2023/06/02 06:28:03;;;;;;;16.13;2.83;;;10.70;99.90;;;;;;12418653;28;20184;-38
2023/06/02 06:34:05;;;;;;;10.50;3.03;;;11.00;99.90;;;;;;12424487;28;20417;-37
2023/06/02 06:40:08;;;;;;;17.17;3.08;;;11.20;99.90;;;;;;12456055;28;20421;-37
2023/06/02 06:46:10;;;;;;;17.00;3.15;;;11.30;99.90;;;;;;12381129;28;20060;-38
2023/06/02 06:52:12;;;;;;;13.77;2.92;;;11.50;99.90;;;;;;12428663;28;20116;-37
2023/06/02 06:58:13;;;;;;;19.13;3.95;;;11.60;99.90;;;;;;12411656;28;20046;-38
2023/06/02 07:04:16;;;;;;;9.48;3.00;;;11.60;99.90;;;;;;12421592;28;20490;-37
2023/06/02 07:10:18;;;;;;;9.82;2.97;;;11.70;99.90;;;;;;12416971;28;20255;-38
2023/06/02 07:16:21;;;;;;;16.55;3.70;;;11.70;99.90;;;;;;12410633;28;20057;-37
2023/06/02 07:22:23;;;;;;;9.95;3.92;;;11.80;99.90;;;;;;12424849;28;20103;-36
2023/06/02 07:28:25;;;;;;;16.92;4.93;;;11.90;99.90;;;;;;12421199;28;20136;-37
2023/06/02 07:34:40;;;;;;;16.13;4.90;;;11.70;99.90;;;;;;12420610;28;20513;-37
2023/06/02 07:40:48;;;;;;;16.52;4.57;;;11.70;99.90;;;;;;12411386;28;20070;-37
2023/06/02 07:46:50;;;;;;;17.77;4.70;;;11.80;99.90;;;;;;12391394;28;20045;-37
2023/06/02 07:52:55;;;;;;;13.05;3.72;;;11.80;99.90;;;;;;12428530;28;20042;-37
2023/06/02 07:58:56;;;;;;;21.50;5.25;;;12.00;99.90;;;;;;12421181;28;20061;-37
2023/06/02 08:04:59;;;;;;;14.23;4.32;;;12.10;99.90;;;;;;12409210;28;20509;-37
2023/06/02 08:11:03;;;;;;;16.27;4.05;;;12.00;99.90;;;;;;12416108;28;20471;-37
2023/06/02 08:17:06;;;;;;;18.23;4.88;;;12.30;99.90;;;;;;12423999;28;20041;-37
2023/06/02 08:23:10;;;;;;;15.57;4.30;;;12.20;99.90;;;;;;12419478;28;20509;-37
2023/06/02 08:29:12;;;;;;;15.73;4.13;;;12.10;99.90;;;;;;12430475;28;20045;-38
2023/06/02 08:35:14;;;;;;;17.95;4.05;;;12.10;99.90;;;;;;12423377;28;20045;-38
2023/06/02 08:41:16;;;;;;;15.73;4.57;;;12.10;99.90;;;;;;12426576;28;20505;-38
2023/06/02 08:47:23;;;;;;;16.20;4.20;;;12.20;99.90;;;;;;12424923;28;20798;-38
2023/06/02 08:53:26;;;;;;;18.00;4.88;;;12.00;99.90;;;;;;12427803;28;20042;-38
2023/06/02 08:59:28;;;;;;;17.55;5.07;;;12.00;99.90;;;;;;12438795;28;20421;-38
2023/06/02 09:05:32;;;;;;;16.70;4.95;;;12.10;99.90;;;;;;12426103;28;20078;-39
2023/06/02 09:11:34;;;;;;;16.03;5.17;;;12.10;99.90;;;;;;12423548;28;20092;-38
2023/06/02 09:17:35;;;;;;;12.35;4.80;;;12.20;99.90;;;;;;12418752;28;20077;-38
2023/06/02 09:23:45;;;;;;;13.02;4.70;;;12.20;99.90;;;;;;12458277;28;20042;-39
2023/06/02 09:30:00;;;;;;;19.30;5.05;;;12.10;99.90;;;;;;12424568;28;20288;-38
2023/06/02 09:36:04;;;;;;;16.95;5.05;;;12.50;99.90;;;;;;12439409;28;20506;-40
2023/06/02 09:42:06;;;;;;;12.65;4.20;;;12.70;99.90;;;;;;12429305;28;20586;-38
2023/06/02 09:48:18;;;;;;;12.98;4.25;;;13.00;99.90;;;;;;12477626;28;20096;-38
2023/06/02 09:54:20;;;;;;;11.75;4.00;;;13.50;99.90;;;;;;12442965;28;20424;-39
2023/06/02 10:00:23;;;;;;;12.45;3.92;;;14.20;99.90;;;;;;12432928;28;20045;-38
2023/06/02 10:06:44;;;;;;;11.82;3.83;;;14.70;99.90;;;;;;12428759;28;20057;-38
2023/06/02 10:12:52;;;;;;;13.68;3.58;;;14.60;99.90;;;;;;12432442;28;20053;-37
2023/06/02 10:19:13;;;;;;;9.90;3.33;;;14.60;99.90;;;;;;12428331;28;20042;-38
2023/06/02 10:25:27;;;;;;;13.77;3.75;;;15.50;99.90;;;;;;12444593;28;20049;-38
2023/06/02 10:31:33;;;;;;;14.60;3.55;;;15.70;99.90;;;;;;12434742;28;20558;-37
2023/06/02 10:37:37;;;;;;;11.18;3.58;;;15.90;99.90;;;;;;12414724;28;20050;-38
2023/06/02 10:43:39;;;;;;;11.43;3.60;;;16.10;99.90;;;;;;12409725;28;20054;-38
2023/06/02 10:49:55;;;;;;;12.07;4.53;;;15.80;99.90;;;;;;12445782;28;20038;-38
2023/06/02 10:56:17;;;;;;;13.05;4.20;;;15.50;99.90;;;;;;12436552;28;20042;-38
2023/06/02 11:02:41;;;;;;;11.75;3.58;;;16.30;99.90;;;;;;12421681;28;20045;-38
2023/06/02 11:08:45;;;;;;;10.38;3.60;;;15.90;99.90;;;;;;12412888;28;20053;-38
2023/06/02 11:15:03;;;;;;;8.57;3.23;;;16.20;99.90;;;;;;12422518;28;20730;-38
2023/06/02 11:21:19;;;;;;;11.80;3.60;;;15.60;99.90;;;;;;12438043;28;20062;-38
2023/06/02 11:27:43;;;;;;;12.98;3.67;;;15.60;99.90;;;;;;12429518;28;20099;-38
2023/06/02 11:33:48;;;;;;;12.00;3.63;;;15.80;99.90;;;;;;12436116;28;20046;-37
2023/06/02 11:39:52;;;;;;;17.40;3.25;;;16.90;99.90;;;;;;12432033;28;20053;-39
2023/06/02 11:46:08;;;;;;;11.95;3.47;;;17.10;99.90;;;;;;12435475;28;20041;-39
2023/06/02 11:52:10;;;;;;;9.95;3.53;;;17.50;99.90;;;;;;12431131;28;20093;-39
2023/06/02 11:58:19;;;;;;;8.63;3.05;;;17.50;99.90;;;;;;12431495;28;20609;-39
2023/06/02 12:04:21;;;;;;;8.70;2.63;;;18.10;99.90;;;;;;12418108;28;20054;-39
2023/06/02 12:10:33;;;;;;;9.77;2.63;;;17.60;99.90;;;;;;12403598;28;20167;-39
2023/06/02 12:16:37;;;;;;;9.65;2.47;;;18.30;99.90;;;;;;12423988;28;20396;-39
2023/06/02 12:22:55;;;;;;;8.32;2.55;;;18.70;99.90;;;;;;12417201;28;20088;-38
2023/06/02 12:28:57;;;;;;;9.88;3.00;;;17.90;99.90;;;;;;12411861;28;20076;-38
2023/06/02 12:34:59;;;;;;;10.48;2.80;;;17.60;99.90;;;;;;12398258;28;20049;-39
2023/06/02 12:41:02;;;;;;;12.05;2.85;;;17.20;99.90;;;;;;12409158;28;20045;-39
2023/06/02 12:47:06;;;;;;;11.50;3.50;;;17.70;99.90;;;;;;12409786;28;20084;-38
2023/06/02 12:53:08;;;;;;;10.43;2.35;;;18.40;99.90;;;;;;12414973;28;20057;-39
2023/06/02 12:59:11;;;;;;;9.00;2.40;;;18.60;99.90;;;;;;12418301;28;20050;-39
2023/06/02 13:05:14;;;;;;;13.70;3.17;;;17.60;99.90;;;;;;12411551;28;20042;-38
2023/06/02 13:11:17;;;;;;;6.55;2.35;;;17.40;99.90;;;;;;12411766;28;20510;-39
2023/06/02 13:17:19;;;;;;;9.75;2.35;;;17.70;99.90;;;;;;12409255;28;20038;-39
2023/06/02 13:23:21;;;;;;;14.27;2.50;;;18.00;99.90;;;;;;12418595;28;20576;-38
2023/06/02 13:29:22;;;;;;;8.90;2.35;;;18.00;99.90;;;;;;12419058;28;20073;-39
2023/06/02 13:35:25;;;;;;;9.82;2.38;;;18.00;99.90;;;;;;12419421;28;20048;-38
2023/06/02 13:41:28;;;;;;;10.02;2.70;;;18.30;99.90;;;;;;12430542;28;20062;-38
2023/06/02 13:47:30;;;;;;;7.90;2.20;;;17.90;99.90;;;;;;12426996;28;20058;-39
2023/06/02 13:53:33;;;;;;;11.70;2.28;;;17.90;99.90;;;;;;12421140;28;20050;-39
2023/06/02 13:59:34;;;;;;;8.05;2.33;;;18.10;99.90;;;;;;12408392;28;20049;-38
2023/06/02 14:05:36;;;;;;;11.32;2.35;;;18.10;99.90;;;;;;12422878;28;20399;-37
2023/06/02 14:11:39;;;;;;;11.30;2.38;;;18.40;99.90;;;;;;12422453;28;20046;-38
2023/06/02 14:17:41;;;;;;;9.35;2.63;;;18.20;99.90;;;;;;12418570;28;20081;-38
2023/06/02 14:23:43;;;;;;;10.38;2.45;;;17.90;99.90;;;;;;12431832;28;20060;-38
2023/06/02 14:29:45;;;;;;;12.80;2.50;;;17.90;99.90;;;;;;12417957;28;20053;-38
2023/06/02 14:35:47;;;;;;;10.00;2.40;;;17.70;99.90;;;;;;12415055;28;20502;-37
2023/06/02 14:41:49;;;;;;;8.82;2.50;;;17.50;99.90;;;;;;12418819;28;20442;-37
2023/06/02 14:47:51;;;;;;;11.25;2.40;;;17.10;99.90;;;;;;12428174;28;20050;-37
2023/06/02 14:53:53;;;;;;;13.70;2.47;;;16.80;99.90;;;;;;12422858;28;20045;-39
2023/06/02 14:59:57;;;;;;;8.48;2.47;;;16.70;99.90;;;;;;12421156;28;20068;-38
2023/06/02 15:05:59;;;;;;;7.75;2.03;;;16.60;99.90;;;;;;12424077;28;20095;-38
2023/06/02 15:12:01;;;;;;;11.95;2.38;;;16.60;99.90;;;;;;12425726;28;20054;-38
2023/06/02 15:18:03;;;;;;;13.75;2.72;;;16.50;99.90;;;;;;12403572;28;20046;-38
2023/06/02 15:24:05;;;;;;;6.38;1.83;;;16.50;99.90;;;;;;12427543;28;20628;-37
2023/06/02 15:30:08;;;;;;;9.27;2.92;;;16.70;99.90;;;;;;12427270;28;20057;-38
2023/06/02 15:36:10;;;;;;;10.15;2.38;;;16.60;99.90;;;;;;12407901;28;20426;-39
2023/06/02 15:42:14;;;;;;;9.13;2.20;;;16.70;99.90;;;;;;12418492;28;20053;-38
2023/06/02 15:48:15;;;;;;;;;;;16.60;99.90;;;;;;12403651;28;20038;-38
2023/06/02 15:54:17;;;;;;;8.13;2.00;;;16.70;99.90;;;;;;12439293;28;20369;-38
2023/06/02 16:00:19;;;;;;;7.97;2.50;;;17.10;99.90;;;;;;12417564;28;20502;-40
2023/06/02 16:06:21;;;;;;;7.65;1.90;;;17.10;99.90;;;;;;12416865;28;20054;-39
2023/06/02 16:12:23;;;;;;;8.55;2.22;;;17.10;99.90;;;;;;12409481;28;20041;-38
2023/06/02 16:18:26;;;;;;;10.13;2.25;;;16.90;99.90;;;;;;12409755;28;20041;-39
2023/06/02 16:24:28;;;;;;;7.97;2.53;;;16.90;99.90;;;;;;12409999;28;20057;-38
2023/06/02 16:30:30;;;;;;;6.30;1.92;;;17.20;99.90;;;;;;12418460;28;20139;-38
2023/06/02 16:36:32;;;;;;;6.82;2.00;;;17.20;99.90;;;;;;12429087;28;20053;-39
2023/06/02 16:42:34;;;;;;;8.48;2.20;;;17.10;99.90;;;;;;12436586;28;20441;-38
2023/06/02 16:48:37;;;;;;;9.18;1.98;;;17.00;99.90;;;;;;12440049;28;20126;-39
2023/06/02 16:54:39;;;;;;;11.48;2.55;;;17.00;99.90;;;;;;12435437;28;20042;-40
2023/06/02 17:00:43;;;;;;;12.18;2.70;;;16.90;99.90;;;;;;12448598;28;20125;-38
2023/06/02 17:06:45;;;;;;;9.15;2.40;;;16.90;99.90;;;;;;12429280;28;20057;-38
2023/06/02 17:12:47;;;;;;;9.45;2.33;;;16.80;99.90;;;;;;12411233;28;20054;-37
2023/06/02 17:18:49;;;;;;;9.35;2.25;;;16.80;99.90;;;;;;12428496;28;20308;-38
2023/06/02 17:24:52;;;;;;;10.68;2.25;;;16.80;99.90;;;;;;12424107;28;20525;-39
2023/06/02 17:30:57;;;;;;;10.13;2.10;;;16.60;99.90;;;;;;12423379;28;20052;-38
2023/06/02 17:36:59;;;;;;;7.32;2.08;;;16.60;99.90;;;;;;12435819;28;20099;-38
2023/06/02 17:43:01;;;;;;;6.53;1.98;;;16.50;99.90;;;;;;12434646;28;20203;-39
2023/06/02 17:49:03;;;;;;;12.40;2.38;;;16.50;99.90;;;;;;12448712;28;20045;-38
2023/06/02 17:55:05;;;;;;;7.63;1.98;;;16.80;99.90;;;;;;12442939;28;20106;-38
2023/06/02 18:01:07;;;;;;;6.72;2.47;;;16.80;99.90;;;;;;12440551;28;20409;-38
2023/06/02 18:07:09;;;;;;;5.40;1.77;;;16.60;99.90;;;;;;12443045;28;20081;-38
2023/06/02 18:13:11;;;;;;;10.38;2.30;;;16.50;99.90;;;;;;12418330;28;20489;-39
2023/06/02 18:19:13;;;;;;;8.50;2.17;;;16.70;99.90;;;;;;12409228;28;20085;-39
2023/06/02 18:25:15;;;;;;;6.85;2.17;;;16.50;99.90;;;;;;12434823;28;20042;-38
2023/06/02 18:31:20;;;;;;;8.50;2.17;;;16.40;99.90;;;;;;12429400;28;20050;-38
2023/06/02 18:37:22;;;;;;;6.00;1.77;;;16.40;99.90;;;;;;12429684;28;20056;-38
2023/06/02 18:43:24;;;;;;;9.07;2.30;;;16.30;99.90;;;;;;12445320;28;20498;-38
2023/06/02 18:49:26;;;;;;;6.25;2.25;;;16.20;99.90;;;;;;12466232;28;20471;-37
2023/06/02 18:55:28;;;;;;;7.35;2.17;;;16.00;99.90;;;;;;12436681;28;20312;-38
2023/06/02 19:01:30;;;;;;;6.13;2.25;;;16.00;99.90;;;;;;12452256;28;20057;-37
2023/06/02 19:07:33;;;;;;;7.65;2.80;;;16.00;99.90;;;;;;12443755;28;20077;-38
2023/06/02 19:13:35;;;;;;;7.07;2.83;;;15.80;99.90;;;;;;12439019;28;20046;-37
2023/06/02 19:19:37;;;;;;;8.80;2.63;;;15.80;99.90;;;;;;12458168;28;20053;-38
2023/06/02 19:25:39;;;;;;;5.90;2.22;;;15.60;99.90;;;;;;12442454;28;20406;-39
2023/06/02 19:31:41;;;;;;;6.15;2.17;;;15.60;99.90;;;;;;12443632;28;20046;-38
2023/06/02 19:37:43;;;;;;;11.82;2.25;;;15.50;99.90;;;;;;12447926;28;20071;-40
2023/06/02 19:43:45;;;;;;;7.57;2.22;;;15.50;99.90;;;;;;12460337;28;20147;-38
2023/06/02 19:49:47;;;;;;;6.28;2.30;;;15.30;99.90;;;;;;12439922;28;20397;-38
2023/06/02 19:55:49;;;;;;;8.93;2.55;;;15.20;99.90;;;;;;12431320;28;20037;-38
2023/06/02 20:01:51;;;;;;;5.47;2.50;;;15.30;99.90;;;;;;12445113;28;20069;-38
2023/06/02 20:07:53;;;;;;;8.20;3.20;;;15.20;99.90;;;;;;12432546;28;20057;-37
2023/06/02 20:13:56;;;;;;;8.05;2.47;;;15.10;99.90;;;;;;12417865;28;20046;-38
2023/06/02 20:19:59;;;;;;;11.27;2.65;;;14.90;99.90;;;;;;12436394;28;20042;-38
2023/06/02 20:26:01;;;;;;;10.45;3.17;;;14.80;99.90;;;;;;12437324;28;20639;-38
2023/06/02 20:32:04;;;;;;;6.38;2.63;;;14.80;99.90;;;;;;12435702;28;20513;-37
2023/06/02 20:38:06;;;;;;;10.43;3.40;;;14.80;99.90;;;;;;12435577;28;20053;-38
2023/06/02 20:44:08;;;;;;;11.95;3.03;;;14.60;99.90;;;;;;12437789;28;20046;-37
2023/06/02 20:50:10;;;;;;;6.78;3.30;;;14.40;99.90;;;;;;12449312;28;20459;-37
2023/06/02 20:56:12;;;;;;;7.70;2.78;;;14.40;99.90;;;;;;12451030;28;20053;-38
2023/06/02 21:02:14;;;;;;;7.20;3.15;;;14.30;99.90;;;;;;12445980;28;20486;-38
2023/06/02 21:08:16;;;;;;;6.97;3.05;;;14.10;99.90;;;;;;12447298;28;20049;-38
2023/06/02 21:14:18;;;;;;;5.15;2.60;;;14.00;99.90;;;;;;12455175;28;20565;-37
2023/06/02 21:20:20;;;;;;;10.50;3.22;;;13.70;99.90;;;;;;12453254;28;20073;-37
2023/06/02 21:26:22;;;;;;;10.05;3.00;;;13.70;99.90;;;;;;12453484;28;20370;-37
2023/06/02 21:32:24;;;;;;;10.20;2.70;;;13.60;99.90;;;;;;12477128;28;20057;-38
2023/06/02 21:38:26;;;;;;;5.65;2.17;;;13.30;99.90;;;;;;12458472;28;20059;-37
2023/06/02 21:44:28;;;;;;;5.68;2.15;;;13.10;99.90;;;;;;12440327;28;20045;-37
2023/06/02 21:50:30;;;;;;;5.95;2.05;;;13.00;99.90;;;;;;12463978;28;20092;-37
2023/06/02 21:56:34;;;;;;;8.40;2.30;;;13.00;99.90;;;;;;12452846;28;20099;-37
2023/06/02 22:02:37;;;;;;;4.28;1.88;;;13.00;99.90;;;;;;12445128;28;20052;-37
2023/06/02 22:08:39;;;;;;;5.35;2.40;;;13.00;99.90;;;;;;12443078;28;20060;-37
2023/06/02 22:14:41;;;;;;;3.25;1.50;;;12.90;99.90;;;;;;12474151;28;20046;-37
2023/06/02 22:20:43;;;;;;;4.05;1.30;;;12.90;99.90;;;;;;12444936;28;20053;-37
2023/06/02 22:26:45;;;;;;;3.60;1.45;;;12.90;99.90;;;;;;12458884;28;20128;-37
2023/06/02 22:32:53;;;;;;;2.78;1.10;;;12.90;99.90;;;;;;12465820;28;20041;-37
2023/06/02 22:38:55;;;;;;;3.75;1.42;;;12.80;99.90;;;;;;12451774;28;20053;-37
2023/06/02 22:44:57;;;;;;;3.00;1.40;;;12.90;99.90;;;;;;12450672;28;20133;-37
2023/06/02 22:50:59;;;;;;;2.97;1.15;;;13.00;99.90;;;;;;12455642;28;20198;-37
2023/06/02 22:57:01;;;;;;;2.60;1.20;;;13.00;99.90;;;;;;12434326;28;20077;-38
2023/06/02 23:03:03;;;;;;;3.78;1.13;;;12.90;99.90;;;;;;12447779;28;20052;-38
2023/06/02 23:09:05;;;;;;;5.28;1.30;;;12.40;99.90;;;;;;12455531;28;20248;-37
2023/06/02 23:15:09;;;;;;;1.67;0.90;;;12.40;99.90;;;;;;12445006;28;20041;-37
2023/06/02 23:21:11;;;;;;;1.87;0.80;;;12.40;99.90;;;;;;12450575;28;20046;-38
2023/06/02 23:27:13;;;;;;;3.15;0.80;;;12.40;99.90;;;;;;12458719;28;20050;-37
2023/06/02 23:33:17;;;;;;;3.50;0.90;;;12.40;99.90;;;;;;12449761;28;20045;-37
2023/06/02 23:39:18;;;;;;;2.67;0.90;;;12.40;99.90;;;;;;12448377;28;20144;-37
2023/06/02 23:45:21;;;;;;;4.50;1.02;;;12.40;99.90;;;;;;12446423;28;20168;-36
2023/06/02 23:51:22;;;;;;;2.40;0.80;;;12.30;99.90;;;;;;12437125;28;20065;-37
2023/06/02 23:57:25;;;;;;;2.97;0.52;;;12.40;99.90;;;;;;12450453;28;20060;-37
